createdAt,value
2022-10-15T00:02:26.340Z,75.30
2022-10-15T00:04:56.475Z,76.20
2022-10-15T00:07:27.224Z,76.70
2022-10-15T00:09:57.394Z,76.60
2022-10-15T00:12:27.574Z,75.60
2022-10-15T00:14:57.839Z,76.80
2022-10-15T00:17:28.064Z,78.20
2022-10-15T00:19:58.208Z,78.10
2022-10-15T00:22:28.399Z,79.40
2022-10-15T00:24:58.643Z,78.90
2022-10-15T00:27:29.087Z,79.80
2022-10-15T00:30:01.782Z,78.00
2022-10-15T00:32:33.650Z,77.50
2022-10-15T00:35:03.844Z,78.60
2022-10-15T00:37:34.011Z,77.40
2022-10-15T00:40:04.177Z,76.80
2022-10-15T00:42:34.338Z,76.40
2022-10-15T00:45:05.206Z,77.60
2022-10-15T00:47:41.952Z,77.70
2022-10-15T00:50:14.933Z,75.60
2022-10-15T00:53:04.380Z,76.30
2022-10-15T00:55:36.077Z,74.40
2022-10-15T00:58:15.570Z,73.80
2022-10-15T01:00:46.161Z,73.50
2022-10-15T01:03:16.297Z,74.30
2022-10-15T01:05:48.524Z,72.50
2022-10-15T01:08:19.723Z,71.00
2022-10-15T01:11:07.952Z,72.30
2022-10-15T01:13:51.732Z,69.60
2022-10-15T01:16:30.195Z,71.10
2022-10-15T01:19:30.804Z,70.30
2022-10-15T01:22:11.010Z,71.70
2022-10-15T01:25:04.165Z,73.70
2022-10-15T01:27:48.175Z,72.00
2022-10-15T01:30:23.744Z,73.70
2022-10-15T01:32:57.927Z,72.00
2022-10-15T01:36:00.210Z,72.00
2022-10-15T01:38:59.499Z,71.20
2022-10-15T01:41:32.813Z,73.10
2022-10-15T01:44:06.632Z,71.90
2022-10-15T01:46:51.069Z,73.00
2022-10-15T01:49:28.240Z,71.90
2022-10-15T01:52:01.051Z,70.00
2022-10-15T01:54:32.610Z,70.20
2022-10-15T01:57:04.055Z,70.20
2022-10-15T01:59:36.697Z,69.40
2022-10-15T02:02:07.315Z,69.30
2022-10-15T02:04:38.674Z,68.20
2022-10-15T02:07:32.864Z,68.80
2022-10-15T02:10:21.404Z,68.70
2022-10-15T02:13:10.788Z,67.70
2022-10-15T02:15:52.698Z,68.80
2022-10-15T02:18:47.060Z,69.50
2022-10-15T02:21:46.227Z,67.10
2022-10-15T02:24:31.081Z,67.50
2022-10-15T02:27:03.338Z,65.80
2022-10-15T02:29:37.243Z,67.10
2022-10-15T02:32:09.995Z,66.90
2022-10-15T02:34:42.535Z,65.90
2022-10-15T02:37:13.308Z,67.20
2022-10-15T02:39:43.662Z,67.30
2022-10-15T02:42:14.466Z,66.30
2022-10-15T02:44:44.628Z,67.30
2022-10-15T02:47:15.351Z,67.20
2022-10-15T02:49:45.609Z,66.70
2022-10-15T02:52:16.018Z,65.90
2022-10-15T02:54:46.184Z,66.60
2022-10-15T02:57:16.501Z,65.80
2022-10-15T02:59:46.655Z,66.30
2022-10-15T03:02:19.218Z,66.40
2022-10-15T03:04:49.679Z,67.40
2022-10-15T03:07:19.978Z,67.00
2022-10-15T03:09:50.204Z,67.90
2022-10-15T03:12:22.583Z,66.20
2022-10-15T03:14:52.889Z,67.10
2022-10-15T03:17:23.530Z,65.30
2022-10-15T03:19:53.987Z,66.20
2022-10-15T03:22:24.201Z,66.90
2022-10-15T03:24:54.767Z,67.10
2022-10-15T03:27:25.794Z,66.20
2022-10-15T03:29:56.089Z,66.60
2022-10-15T03:32:26.322Z,68.20
2022-10-15T03:34:56.417Z,66.40
2022-10-15T03:37:26.815Z,66.60
2022-10-15T03:39:56.928Z,67.60
2022-10-15T03:42:27.259Z,66.70
2022-10-15T03:44:57.420Z,66.70
2022-10-15T03:47:28.882Z,67.60
2022-10-15T03:49:59.023Z,66.40
2022-10-15T03:52:30.005Z,66.90
2022-10-15T03:55:02.728Z,65.90
2022-10-15T03:57:33.309Z,66.30
2022-10-15T04:00:04.063Z,67.50
2022-10-15T04:02:35.450Z,68.80
2022-10-15T04:05:05.814Z,66.60
2022-10-15T04:07:36.362Z,67.60
2022-10-15T04:10:06.705Z,68.90
2022-10-15T04:12:36.901Z,67.40
2022-10-15T04:15:07.755Z,66.60
2022-10-15T04:17:37.927Z,66.20
2022-10-15T04:20:08.420Z,66.30
2022-10-15T04:22:40.383Z,67.80
2022-10-15T04:25:11.115Z,67.50
2022-10-15T04:27:41.680Z,68.30
2022-10-15T04:30:12.477Z,68.20
2022-10-15T04:32:42.689Z,68.90
2022-10-15T04:35:12.995Z,68.00
2022-10-15T04:37:43.584Z,67.70
2022-10-15T04:40:15.366Z,68.60
2022-10-15T04:42:47.366Z,69.30
2022-10-15T04:45:18.055Z,68.20
2022-10-15T04:47:49.003Z,68.10
2022-10-15T04:50:19.483Z,68.40
2022-10-15T04:52:50.354Z,69.40
2022-10-15T04:55:21.090Z,69.90
2022-10-15T04:57:51.971Z,68.90
2022-10-15T05:00:22.748Z,68.00
2022-10-15T05:02:53.833Z,68.50
2022-10-15T05:05:24.357Z,68.80
2022-10-15T05:07:55.783Z,68.50
2022-10-15T05:10:26.364Z,68.50
2022-10-15T05:12:57.231Z,68.00
2022-10-15T05:15:29.504Z,67.70
2022-10-15T05:18:00.351Z,68.10
2022-10-15T05:20:30.887Z,68.60
2022-10-15T05:23:01.471Z,69.30
2022-10-15T05:25:32.018Z,68.10
2022-10-15T05:28:02.686Z,68.40
2022-10-15T05:30:33.327Z,68.10
2022-10-15T05:33:04.055Z,69.30
2022-10-15T05:35:34.693Z,69.00
2022-10-15T05:38:06.364Z,68.80
2022-10-15T05:40:37.250Z,69.30
2022-10-15T05:43:07.887Z,70.80
2022-10-15T05:45:38.692Z,69.60
2022-10-15T05:48:09.940Z,69.80
2022-10-15T05:50:40.684Z,68.80
2022-10-15T05:53:12.125Z,68.80
2022-10-15T05:55:42.746Z,69.20
2022-10-15T05:58:14.574Z,69.30
2022-10-15T06:00:45.398Z,70.10
2022-10-15T06:03:16.925Z,69.90
2022-10-15T06:05:47.040Z,71.00
2022-10-15T06:08:17.604Z,71.30
2022-10-15T06:10:47.945Z,70.60
2022-10-15T06:13:19.104Z,69.90
2022-10-15T06:15:49.490Z,70.10
2022-10-15T06:18:20.285Z,70.20
2022-10-15T06:21:00.129Z,70.40
2022-10-15T06:23:30.575Z,69.40
2022-10-15T06:26:08.748Z,69.70
2022-10-15T06:28:40.328Z,70.50
2022-10-15T06:31:11.429Z,69.40
2022-10-15T06:33:41.859Z,71.00
2022-10-15T06:36:15.305Z,70.30
2022-10-15T06:38:48.898Z,71.20
2022-10-15T06:41:19.939Z,71.60
2022-10-15T06:46:22.981Z,71.20
2022-10-15T06:48:53.750Z,71.60
2022-10-15T06:51:24.124Z,72.70
2022-10-15T06:53:55.817Z,72.30
2022-10-15T06:56:25.971Z,71.80
2022-10-15T06:58:56.342Z,73.30
2022-10-15T07:01:27.748Z,72.20
2022-10-15T07:03:58.625Z,72.80
2022-10-15T07:06:29.360Z,72.40
2022-10-15T07:09:00.564Z,73.40
2022-10-15T07:11:31.203Z,73.00
2022-10-15T07:14:01.820Z,72.50
2022-10-15T07:16:32.175Z,73.50
2022-10-15T07:19:02.846Z,72.60
2022-10-15T07:21:33.380Z,73.50
2022-10-15T07:24:03.913Z,73.40
2022-10-15T07:26:34.439Z,73.10
2022-10-15T07:29:05.922Z,73.70
2022-10-15T07:31:38.398Z,74.30
2022-10-15T07:34:09.827Z,73.90
2022-10-15T07:36:40.361Z,74.30
2022-10-15T07:39:11.759Z,74.70
2022-10-15T07:41:43.911Z,75.10
2022-10-15T07:44:20.831Z,75.20
2022-10-15T07:46:51.043Z,75.10
2022-10-15T07:49:21.268Z,75.60
2022-10-15T07:51:51.482Z,76.00
2022-10-15T07:54:21.815Z,76.60
2022-10-15T07:56:52.309Z,76.40
2022-10-15T07:59:23.047Z,77.00
2022-10-15T08:01:53.639Z,76.30
2022-10-15T08:04:24.284Z,77.20
2022-10-15T08:06:55.494Z,77.50
2022-10-15T08:09:26.378Z,77.80
2022-10-15T08:11:57.091Z,78.40
2022-10-15T08:14:28.005Z,78.50
2022-10-15T08:17:02.195Z,77.90
2022-10-15T08:19:32.846Z,78.70
2022-10-15T08:22:15.743Z,79.30
2022-10-15T08:24:46.400Z,79.80
2022-10-15T08:27:18.352Z,78.90
2022-10-15T08:29:48.982Z,79.30
2022-10-15T08:32:19.515Z,79.10
2022-10-15T08:34:50.086Z,79.80
2022-10-15T08:37:20.747Z,80.00
2022-10-15T08:39:51.659Z,79.90
2022-10-15T08:42:40.054Z,79.90
2022-10-15T08:45:24.812Z,80.00
2022-10-15T08:48:01.693Z,80.30
2022-10-15T08:50:54.074Z,80.30
2022-10-15T08:53:26.342Z,81.20
2022-10-15T08:56:00.845Z,80.80
2022-10-15T08:58:43.414Z,81.20
2022-10-15T09:01:25.340Z,80.70
2022-10-15T09:04:03.902Z,80.90
2022-10-15T09:06:42.077Z,81.10
2022-10-15T09:09:24.709Z,80.80
2022-10-15T09:12:16.018Z,80.90
2022-10-15T09:14:48.902Z,81.20
2022-10-15T09:17:33.852Z,81.80
2022-10-15T09:20:09.487Z,82.00
2022-10-15T09:22:39.753Z,82.00
2022-10-15T09:25:22.710Z,82.30
2022-10-15T09:27:54.753Z,83.00
2022-10-15T09:30:45.288Z,82.00
2022-10-15T09:33:39.545Z,81.60
2022-10-15T09:36:43.570Z,83.40
2022-10-15T09:39:43.166Z,82.60
2022-10-15T09:42:25.523Z,82.80
2022-10-15T09:45:00.300Z,82.70
2022-10-15T09:47:36.282Z,82.00
2022-10-15T09:50:11.727Z,83.10
2022-10-15T09:52:48.065Z,82.50
2022-10-15T09:55:35.400Z,83.20
2022-10-15T09:58:10.884Z,83.30
2022-10-15T10:00:56.364Z,83.70
2022-10-15T10:03:30.260Z,83.10
2022-10-15T10:06:18.710Z,83.40
2022-10-15T10:08:57.027Z,83.50
2022-10-15T10:11:29.763Z,83.70
2022-10-15T10:14:03.171Z,84.40
2022-10-15T10:16:37.242Z,84.00
2022-10-15T10:19:18.090Z,84.80
2022-10-15T10:21:49.215Z,85.00
2022-10-15T10:24:33.814Z,84.70
2022-10-15T10:29:42.914Z,85.50
2022-10-15T10:32:24.912Z,85.40
2022-10-15T10:34:55.500Z,84.90
2022-10-15T10:37:26.896Z,85.30
2022-10-15T10:40:00.152Z,85.40
2022-10-15T10:42:39.979Z,86.00
2022-10-15T10:47:56.585Z,85.70
2022-10-15T10:50:36.384Z,86.50
2022-10-15T10:53:27.412Z,86.70
2022-10-15T10:56:03.331Z,87.20
2022-10-15T10:58:36.388Z,86.20
2022-10-15T11:01:06.636Z,86.40
2022-10-15T11:03:47.439Z,85.90
2022-10-15T11:06:20.581Z,86.00
2022-10-15T11:09:12.782Z,87.50
2022-10-15T11:11:52.317Z,87.00
2022-10-15T11:14:46.974Z,88.40
2022-10-15T11:17:35.205Z,88.80
2022-10-15T11:20:50.892Z,87.80
2022-10-15T11:23:44.528Z,89.80
2022-10-15T11:26:20.669Z,87.90
2022-10-15T11:29:02.239Z,88.10
2022-10-15T11:32:02.763Z,88.10
2022-10-15T11:34:54.865Z,88.40
2022-10-15T11:38:02.983Z,89.80
2022-10-15T11:40:43.941Z,90.70
2022-10-15T11:43:21.866Z,90.60
2022-10-15T11:46:18.402Z,90.80
2022-10-15T11:49:15.508Z,91.00
2022-10-15T11:52:14.278Z,91.10
2022-10-15T11:55:21.219Z,90.70
2022-10-15T11:57:54.895Z,90.90
2022-10-15T12:00:39.226Z,91.00
2022-10-15T12:03:32.241Z,91.30
2022-10-15T12:06:06.174Z,91.40
2022-10-15T12:08:39.484Z,91.20
2022-10-15T12:11:19.136Z,91.00
2022-10-15T12:14:15.275Z,90.90
2022-10-15T12:16:51.131Z,90.60
2022-10-15T12:19:39.678Z,90.80
2022-10-15T12:22:15.254Z,91.00
2022-10-15T12:24:51.947Z,91.30
2022-10-15T12:27:22.343Z,90.80
2022-10-15T12:29:55.722Z,91.10
2022-10-15T12:32:30.928Z,90.80
2022-10-15T12:37:52.403Z,90.60
2022-10-15T12:40:26.233Z,91.10
2022-10-15T12:43:23.863Z,91.00
2022-10-15T12:46:05.857Z,91.10
2022-10-15T12:48:42.193Z,91.00
2022-10-15T12:51:27.687Z,90.70
2022-10-15T12:54:00.414Z,91.10
2022-10-15T12:56:45.837Z,91.20
2022-10-15T12:59:47.982Z,91.00
2022-10-15T13:05:37.843Z,91.00
2022-10-15T13:08:22.080Z,90.80
2022-10-15T13:10:55.811Z,90.90
2022-10-15T13:13:32.441Z,91.20
2022-10-15T13:16:11.638Z,91.30
2022-10-15T13:18:56.033Z,91.40
2022-10-15T13:21:47.999Z,91.70
2022-10-15T13:24:22.434Z,91.60
2022-10-15T13:26:54.059Z,91.50
2022-10-15T13:29:29.874Z,91.40
2022-10-15T13:32:01.166Z,91.30
2022-10-15T13:34:35.500Z,91.20
2022-10-15T13:37:07.051Z,91.40
2022-10-15T13:39:43.872Z,91.70
2022-10-15T13:42:23.385Z,91.50
2022-10-15T13:45:21.071Z,91.40
2022-10-15T13:47:54.129Z,92.00
2022-10-15T13:50:39.024Z,91.90
2022-10-15T13:53:23.564Z,92.10
2022-10-15T13:55:59.018Z,92.30
2022-10-15T13:58:41.712Z,92.70
2022-10-15T14:01:17.219Z,92.10
2022-10-15T14:04:04.124Z,92.50
2022-10-15T14:06:45.470Z,92.40
2022-10-15T14:09:22.392Z,92.80
2022-10-15T14:11:53.513Z,92.80
2022-10-15T14:14:44.335Z,92.70
2022-10-15T14:17:18.997Z,93.20
2022-10-15T14:20:21.786Z,92.90
2022-10-15T14:22:51.632Z,92.90
2022-10-15T14:25:26.952Z,93.00
2022-10-15T14:27:57.323Z,93.00
2022-10-15T14:30:34.777Z,93.00
2022-10-15T14:33:04.985Z,93.40
2022-10-15T14:35:37.794Z,93.70
2022-10-15T14:38:29.655Z,93.60
2022-10-15T14:41:30.544Z,93.40
2022-10-15T14:44:19.535Z,93.70
2022-10-15T14:46:53.539Z,93.60
2022-10-15T14:49:35.576Z,93.50
2022-10-15T14:52:19.268Z,94.00
2022-10-15T14:55:04.138Z,93.80
2022-10-15T14:57:39.473Z,94.20
2022-10-15T15:00:17.818Z,94.00
2022-10-15T15:02:52.575Z,93.80
2022-10-15T15:05:26.572Z,93.50
2022-10-15T15:08:04.433Z,93.90
2022-10-15T15:10:37.050Z,94.30
2022-10-15T15:13:08.512Z,94.30
2022-10-15T15:15:39.324Z,93.90
2022-10-15T15:18:14.906Z,94.30
2022-10-15T15:20:48.401Z,94.20
2022-10-15T15:23:24.860Z,94.20
2022-10-15T15:25:56.475Z,94.60
2022-10-15T15:28:29.460Z,94.40
2022-10-15T15:31:10.270Z,94.30
2022-10-15T15:33:40.798Z,94.30
2022-10-15T15:36:18.914Z,94.40
2022-10-15T15:38:55.215Z,94.60
2022-10-15T15:41:27.801Z,94.60
2022-10-15T15:43:58.139Z,94.40
2022-10-15T15:46:28.577Z,94.50
2022-10-15T15:49:00.577Z,94.60
2022-10-15T15:51:34.303Z,94.50
2022-10-15T15:54:07.865Z,94.60
2022-10-15T15:56:40.105Z,94.80
2022-10-15T15:59:10.786Z,95.00
2022-10-15T16:01:42.586Z,95.00
2022-10-15T16:04:13.218Z,94.90
2022-10-15T16:06:45.559Z,94.80
2022-10-15T16:09:16.075Z,94.80
2022-10-15T16:11:48.708Z,95.00
2022-10-15T16:14:19.544Z,95.10
2022-10-15T16:16:50.175Z,94.70
2022-10-15T16:19:21.221Z,94.60
2022-10-15T16:21:51.775Z,95.00
2022-10-15T16:24:23.665Z,94.80
2022-10-15T16:26:54.260Z,94.70
2022-10-15T16:29:24.859Z,95.00
2022-10-15T16:31:56.120Z,95.00
2022-10-15T16:34:27.014Z,95.00
2022-10-15T16:36:57.636Z,95.10
2022-10-15T16:39:28.375Z,94.80
2022-10-15T16:41:58.662Z,94.70
2022-10-15T16:44:29.117Z,95.30
2022-10-15T16:47:00.027Z,95.30
2022-10-15T16:49:31.017Z,95.00
2022-10-15T16:52:01.475Z,94.80
2022-10-15T16:54:31.984Z,94.90
2022-10-15T16:57:02.421Z,95.00
2022-10-15T16:59:33.062Z,95.20
2022-10-15T17:02:03.459Z,95.10
2022-10-15T17:04:34.755Z,95.10
2022-10-15T17:07:04.987Z,94.90
2022-10-15T17:09:35.471Z,95.10
2022-10-15T17:12:05.825Z,94.90
2022-10-15T17:14:36.577Z,94.90
2022-10-15T17:17:07.272Z,95.40
2022-10-15T17:19:37.767Z,95.40
2022-10-15T17:22:08.425Z,95.70
2022-10-15T17:24:39.083Z,95.60
2022-10-15T17:27:10.373Z,95.70
2022-10-15T17:29:40.729Z,96.00
2022-10-15T17:32:10.883Z,95.70
2022-10-15T17:34:41.075Z,95.90
2022-10-15T17:37:12.207Z,95.50
2022-10-15T17:39:43.237Z,95.60
2022-10-15T17:42:15.245Z,95.80
2022-10-15T17:44:45.400Z,95.30
2022-10-15T17:47:15.794Z,95.30
2022-10-15T17:49:46.016Z,95.10
2022-10-15T17:52:16.238Z,95.40
2022-10-15T17:54:47.573Z,95.00
2022-10-15T17:57:17.708Z,95.10
2022-10-15T17:59:51.160Z,95.30
2022-10-15T18:02:22.064Z,95.80
2022-10-15T18:04:52.621Z,95.70
2022-10-15T18:07:23.112Z,95.20
2022-10-15T18:09:54.061Z,95.00
2022-10-15T18:12:24.268Z,95.50
2022-10-15T18:14:54.500Z,95.00
2022-10-15T18:17:24.957Z,95.20
2022-10-15T18:19:55.231Z,95.90
2022-10-15T18:22:25.900Z,95.30
2022-10-15T18:24:58.540Z,95.40
2022-10-15T18:27:28.954Z,95.40
2022-10-15T18:29:59.216Z,95.40
2022-10-15T18:32:29.485Z,95.50
2022-10-15T18:34:59.780Z,95.50
2022-10-15T18:37:30.428Z,95.50
2022-10-15T18:40:00.612Z,96.00
2022-10-15T18:42:31.074Z,95.70
2022-10-15T18:45:01.237Z,95.40
2022-10-15T18:47:31.466Z,95.60
2022-10-15T18:50:01.835Z,96.00
2022-10-15T18:52:39.985Z,95.80
2022-10-15T18:55:12.161Z,95.60
2022-10-15T18:57:43.826Z,95.70
2022-10-15T19:00:15.446Z,95.20
2022-10-15T19:02:46.159Z,95.60
2022-10-15T19:05:16.671Z,95.50
2022-10-15T19:07:47.028Z,95.30
2022-10-15T19:10:19.201Z,95.20
2022-10-15T19:12:50.258Z,95.40
2022-10-15T19:15:20.504Z,95.30
2022-10-15T19:17:50.806Z,95.50
2022-10-15T19:20:21.078Z,96.00
2022-10-15T19:22:51.352Z,95.70
2022-10-15T19:25:22.042Z,95.70
2022-10-15T19:27:52.681Z,96.30
2022-10-15T19:30:22.977Z,95.60
2022-10-15T19:32:53.495Z,96.10
2022-10-15T19:35:23.619Z,95.90
2022-10-15T19:37:53.809Z,95.60
2022-10-15T19:40:23.998Z,95.70
2022-10-15T19:42:55.545Z,95.50
2022-10-15T19:45:26.094Z,95.60
2022-10-15T19:47:59.938Z,95.70
2022-10-15T19:50:33.244Z,96.10
2022-10-15T19:53:03.414Z,96.10
2022-10-15T19:55:34.154Z,96.30
2022-10-15T19:58:04.497Z,97.10
2022-10-15T20:00:35.366Z,96.60
2022-10-15T20:03:06.428Z,96.60
2022-10-15T20:05:36.606Z,96.00
2022-10-15T20:08:07.173Z,96.20
2022-10-15T20:10:37.937Z,96.30
2022-10-15T20:13:08.155Z,96.30
2022-10-15T20:15:43.323Z,96.50
2022-10-15T20:18:14.801Z,96.20
2022-10-15T20:20:47.225Z,95.80
2022-10-15T20:23:19.679Z,95.80
2022-10-15T20:25:51.136Z,95.80
2022-10-15T20:28:22.219Z,95.90
2022-10-15T20:30:56.871Z,96.00
2022-10-15T20:33:27.115Z,95.90
2022-10-15T20:35:57.310Z,96.10
2022-10-15T20:38:27.524Z,96.10
2022-10-15T20:40:57.696Z,96.80
2022-10-15T20:43:28.016Z,96.60
2022-10-15T20:45:58.217Z,96.80
2022-10-15T20:48:29.791Z,96.30
2022-10-15T20:51:00.029Z,95.60
2022-10-15T20:53:31.424Z,96.00
2022-10-15T20:56:02.975Z,95.40
2022-10-15T20:58:33.801Z,95.30
2022-10-15T21:01:04.922Z,94.90
2022-10-15T21:03:35.297Z,95.30
2022-10-15T21:06:06.213Z,95.00
2022-10-15T21:08:37.115Z,95.20
2022-10-15T21:11:08.907Z,94.80
2022-10-15T21:13:39.115Z,95.20
2022-10-15T21:16:10.551Z,95.40
2022-10-15T21:18:42.428Z,95.00
2022-10-15T21:21:17.273Z,94.80
2022-10-15T21:23:47.610Z,94.30
2022-10-15T21:26:20.015Z,94.20
2022-10-15T21:28:50.582Z,94.50
2022-10-15T21:31:20.914Z,93.90
2022-10-15T21:33:51.311Z,94.40
2022-10-15T21:36:28.387Z,93.80
2022-10-15T21:39:06.188Z,94.10
2022-10-15T21:41:38.652Z,93.80
2022-10-15T21:44:10.541Z,93.50
2022-10-15T21:46:43.333Z,93.30
2022-10-15T21:49:16.385Z,93.70
2022-10-15T21:51:47.235Z,93.90
2022-10-15T21:54:17.411Z,93.10
2022-10-15T21:56:47.932Z,92.30
2022-10-15T21:59:19.784Z,92.00
2022-10-15T22:01:50.471Z,91.50
2022-10-15T22:04:22.458Z,91.20
2022-10-15T22:06:52.643Z,91.00
2022-10-15T22:09:22.921Z,91.30
2022-10-15T22:11:53.027Z,90.80
2022-10-15T22:14:23.278Z,90.60
2022-10-15T22:16:53.415Z,90.60
2022-10-15T22:19:24.245Z,90.30
2022-10-15T22:21:54.440Z,89.10
2022-10-15T22:24:24.585Z,87.80
2022-10-15T22:26:55.462Z,87.40
2022-10-15T22:29:31.782Z,87.40
2022-10-15T22:32:04.777Z,86.10
2022-10-15T22:34:34.954Z,84.90
2022-10-15T22:37:05.390Z,83.60
2022-10-15T22:39:35.689Z,84.50
2022-10-15T22:42:06.090Z,83.80
2022-10-15T22:44:36.686Z,84.10
2022-10-15T22:47:07.064Z,84.20
2022-10-15T22:49:37.163Z,83.30
2022-10-15T22:52:07.481Z,84.30
2022-10-15T22:54:38.251Z,84.90
2022-10-15T22:57:08.593Z,85.10
2022-10-15T22:59:39.432Z,84.70
2022-10-15T23:02:09.775Z,84.40
2022-10-15T23:04:40.535Z,84.50
2022-10-15T23:07:10.649Z,85.10
2022-10-15T23:09:40.749Z,84.50
2022-10-15T23:12:11.045Z,84.80
2022-10-15T23:14:41.185Z,84.30
2022-10-15T23:17:11.516Z,83.50
2022-10-15T23:19:41.667Z,84.20
2022-10-15T23:22:12.045Z,84.30
2022-10-15T23:24:42.593Z,82.80
2022-10-15T23:27:15.780Z,83.00
2022-10-15T23:29:48.225Z,83.40
2022-10-15T23:32:23.942Z,83.30
2022-10-15T23:34:55.187Z,84.70
2022-10-15T23:37:26.194Z,83.90
2022-10-15T23:39:56.837Z,84.80
2022-10-15T23:42:27.200Z,84.40
2022-10-15T23:44:57.424Z,83.50
2022-10-15T23:47:28.076Z,82.20
2022-10-15T23:49:58.557Z,82.40
2022-10-15T23:52:29.317Z,82.70
2022-10-15T23:54:59.608Z,82.00
2022-10-15T23:57:30.822Z,82.30
